Time;durP1;ratioP1;P1;durP2;ratioP2;P2;SDS_P1;SDS_P2;PMS_P1;PMS_P2;Temp;Humidity;BMP_temperature;BMP_pressure;BME280_temperature;BME280_humidity;BME280_pressure;Samples;Min_cycle;Max_cycle;Signal;HPM_P1;HPM_P2
2021/04/10 00:02:24;;;;;;;;;;;6.30;47.20;;;;;;5027005;28;20073;-67
2021/04/10 00:04:49;;;;;;;;;;;6.30;47.30;;;;;;5026728;28;20006;-66
2021/04/10 00:07:15;;;;;;;;;;;6.30;47.40;;;;;;5026930;28;19916;-67
2021/04/10 00:09:40;;;;;;;;;;;6.30;47.40;;;;;;5027322;28;19909;-66
2021/04/10 00:12:06;;;;;;;;;;;6.30;47.50;;;;;;5027215;28;20011;-66
2021/04/10 00:14:32;;;;;;;;;;;6.30;47.60;;;;;;5026358;28;19916;-66
2021/04/10 00:16:57;;;;;;;;;;;6.20;47.50;;;;;;5026768;28;19909;-67
2021/04/10 00:19:23;;;;;;;;;;;6.20;47.80;;;;;;5026844;28;19987;-67
2021/04/10 00:21:48;;;;;;;;;;;6.20;48.20;;;;;;5026558;28;19975;-67
2021/04/10 00:24:14;;;;;;;;;;;6.30;48.00;;;;;;5026946;28;20403;-67
2021/04/10 00:26:39;;;;;;;;;;;6.30;47.70;;;;;;5026954;28;19951;-66
2021/04/10 00:29:05;;;;;;;;;;;6.30;47.70;;;;;;5025250;28;19909;-67
2021/04/10 00:31:30;;;;;;;;;;;6.30;47.70;;;;;;5025162;28;19909;-66
2021/04/10 00:33:56;;;;;;;;;;;6.30;47.90;;;;;;5026792;28;19905;-67
2021/04/10 00:36:21;;;;;;;;;;;6.40;47.50;;;;;;5025581;28;19959;-67
2021/04/10 00:38:47;;;;;;;;;;;6.40;47.70;;;;;;5026410;28;20060;-66
2021/04/10 00:41:13;;;;;;;;;;;6.40;48.00;;;;;;5026223;28;19923;-67
2021/04/10 00:43:38;;;;;;;;;;;6.30;48.20;;;;;;5025820;28;20405;-67
2021/04/10 00:46:06;;;;;;;;;;;6.30;48.70;;;;;;5026256;28;19963;-67
2021/04/10 00:48:31;;;;;;;;;;;6.40;48.00;;;;;;5025167;28;19909;-67
2021/04/10 00:50:57;;;;;;;;;;;6.50;47.50;;;;;;5026967;28;19909;-67
2021/04/10 00:53:24;;;;;;;;;;;6.50;47.30;;;;;;5026869;28;19909;-67
2021/04/10 00:55:51;;;;;;;;;;;6.50;47.30;;;;;;5024726;28;19909;-66
2021/04/10 00:58:17;;;;;;;;;;;6.50;47.30;;;;;;5026298;28;19947;-67
2021/04/10 01:00:42;;;;;;;;;;;6.50;47.20;;;;;;5026196;28;19964;-67
2021/04/10 01:03:08;;;;;;;;;;;6.60;46.90;;;;;;5026447;28;19912;-66
2021/04/10 01:05:34;;;;;;;;;;;6.50;47.20;;;;;;5026040;28;19913;-67
2021/04/10 01:08:00;;;;;;;;;;;6.40;47.30;;;;;;5026675;28;19905;-66
2021/04/10 01:10:27;;;;;;;;;;;6.30;47.60;;;;;;5026467;28;19909;-67
2021/04/10 01:13:11;;;;;;;;;;;6.40;47.40;;;;;;5025677;28;20386;-67
2021/04/10 01:15:43;;;;;;;;;;;6.40;47.30;;;;;;5026021;28;19916;-67
2021/04/10 01:18:14;;;;;;;;;;;6.60;46.80;;;;;;5025800;28;19909;-67
2021/04/10 01:20:59;;;;;;;;;;;6.50;47.00;;;;;;5026436;28;19917;-67
2021/04/10 01:23:43;;;;;;;;;;;6.50;47.10;;;;;;5026001;28;20392;-67
2021/04/10 01:26:24;;;;;;;;;;;6.40;47.10;;;;;;5026045;28;19905;-66
2021/04/10 01:29:09;;;;;;;;;;;6.30;47.40;;;;;;5025941;28;19909;-66
2021/04/10 01:31:37;;;;;;;;;;;6.30;47.40;;;;;;5026085;28;20421;-66
2021/04/10 01:34:07;;;;;;;;;;;6.20;47.70;;;;;;5026280;28;19916;-67
2021/04/10 01:36:35;;;;;;;;;;;6.20;48.00;;;;;;5024686;28;20381;-66
2021/04/10 01:39:02;;;;;;;;;;;6.10;48.30;;;;;;5026305;28;19944;-67
2021/04/10 01:41:28;;;;;;;;;;;6.00;48.10;;;;;;5026101;28;20415;-66
2021/04/10 01:43:55;;;;;;;;;;;6.00;48.30;;;;;;5025488;28;19909;-66
2021/04/10 01:46:23;;;;;;;;;;;5.90;48.40;;;;;;5026418;28;19905;-67
2021/04/10 01:48:50;;;;;;;;;;;5.80;49.10;;;;;;5026129;28;19909;-66
2021/04/10 01:51:16;;;;;;;;;;;5.70;49.30;;;;;;5026019;28;19912;-66
2021/04/10 01:53:42;;;;;;;;;;;5.60;49.80;;;;;;5026002;28;19909;-67
2021/04/10 01:56:10;;;;;;;;;;;5.60;49.90;;;;;;5026134;28;20035;-66
2021/04/10 01:58:36;;;;;;;;;;;5.50;49.90;;;;;;5028999;28;20028;-67
2021/04/10 02:01:02;;;;;;;;;;;5.40;50.70;;;;;;5029496;28;20506;-66
2021/04/10 02:03:28;;;;;;;;;;;5.40;50.10;;;;;;5029518;28;19909;-66
2021/04/10 02:05:54;;;;;;;;;;;5.40;49.90;;;;;;5029398;28;19955;-65
2021/04/10 02:08:20;;;;;;;;;;;5.40;50.20;;;;;;5027876;28;19944;-66
2021/04/10 02:10:46;;;;;;;;;;;5.50;50.10;;;;;;5029369;28;20336;-66
2021/04/10 02:13:12;;;;;;;;;;;5.40;50.50;;;;;;5028830;28;19909;-66
2021/04/10 02:15:38;;;;;;;;;;;5.30;51.20;;;;;;5028604;28;19916;-66
2021/04/10 02:18:04;;;;;;;;;;;5.10;51.90;;;;;;5027931;28;19909;-66
2021/04/10 02:20:30;;;;;;;;;;;5.00;52.50;;;;;;5028781;28;20063;-66
2021/04/10 02:22:56;;;;;;;;;;;4.80;52.90;;;;;;5029308;28;19980;-65
2021/04/10 02:25:26;;;;;;;;;;;4.80;53.20;;;;;;5028766;28;19905;-66
2021/04/10 02:27:53;;;;;;;;;;;4.80;53.00;;;;;;5028718;28;19905;-65
2021/04/10 02:30:19;;;;;;;;;;;4.80;53.00;;;;;;5029298;28;19909;-65
2021/04/10 02:32:48;;;;;;;;;;;4.80;52.70;;;;;;5028658;28;19913;-66
2021/04/10 02:35:18;;;;;;;;;;;4.70;52.80;;;;;;5029046;28;19909;-66
2021/04/10 02:37:45;;;;;;;;;;;4.70;52.60;;;;;;5028410;28;19909;-65
2021/04/10 02:40:10;;;;;;;;;;;4.70;52.50;;;;;;5028727;28;20015;-66
2021/04/10 02:42:39;;;;;;;;;;;4.70;52.40;;;;;;5026952;28;19991;-67
2021/04/10 02:45:06;;;;;;;;;;;4.70;52.90;;;;;;5028321;28;19909;-66
2021/04/10 02:47:32;;;;;;;;;;;4.60;53.10;;;;;;5028702;28;19951;-66
2021/04/10 02:50:01;;;;;;;;;;;4.50;53.20;;;;;;5028239;28;19916;-66
2021/04/10 02:52:35;;;;;;;;;;;4.50;53.10;;;;;;5028747;28;19916;-66
2021/04/10 02:55:02;;;;;;;;;;;4.50;53.50;;;;;;5028554;28;20032;-66
2021/04/10 02:57:28;;;;;;;;;;;4.40;54.00;;;;;;5027950;28;19952;-66
2021/04/10 02:59:56;;;;;;;;;;;4.30;54.70;;;;;;5028444;28;19917;-66
2021/04/10 03:02:22;;;;;;;;;;;4.20;55.10;;;;;;5028304;28;20283;-66
2021/04/10 03:04:48;;;;;;;;;;;4.10;55.70;;;;;;5028275;28;19912;-66
2021/04/10 03:07:14;;;;;;;;;;;4.10;56.10;;;;;;5027492;28;19907;-65
2021/04/10 03:09:44;;;;;;;;;;;4.10;56.40;;;;;;5028349;28;20442;-66
2021/04/10 03:12:13;;;;;;;;;;;4.10;56.30;;;;;;5027733;28;19976;-65
2021/04/10 03:14:57;;;;;;;;;;;4.10;56.50;;;;;;5028223;28;19983;-66
2021/04/10 03:17:25;;;;;;;;;;;4.10;56.70;;;;;;5026606;28;19916;-66
2021/04/10 03:19:50;;;;;;;;;;;4.20;56.40;;;;;;5027386;28;19928;-66
2021/04/10 03:22:16;;;;;;;;;;;4.10;56.40;;;;;;5028165;28;19909;-67
2021/04/10 03:24:42;;;;;;;;;;;4.20;56.00;;;;;;5026561;28;19905;-65
2021/04/10 03:27:09;;;;;;;;;;;4.30;55.10;;;;;;5027292;28;20385;-66
2021/04/10 03:29:35;;;;;;;;;;;4.30;54.70;;;;;;5027434;28;20334;-66
2021/04/10 03:32:00;;;;;;;;;;;4.40;54.50;;;;;;5026478;28;20424;-66
2021/04/10 03:34:26;;;;;;;;;;;4.30;54.40;;;;;;5027774;28;19909;-66
2021/04/10 03:36:52;;;;;;;;;;;4.30;54.40;;;;;;5027688;28;19909;-66
2021/04/10 03:39:18;;;;;;;;;;;4.40;54.10;;;;;;5027337;28;20011;-66
2021/04/10 03:41:44;;;;;;;;;;;4.40;54.00;;;;;;5027324;28;20408;-66
2021/04/10 03:44:10;;;;;;;;;;;4.40;53.70;;;;;;5027586;28;19909;-66
2021/04/10 03:46:36;;;;;;;;;;;4.40;53.40;;;;;;5027244;28;19905;-66
2021/04/10 03:49:04;;;;;;;;;;;4.40;53.40;;;;;;5027347;28;19908;-66
2021/04/10 03:51:30;;;;;;;;;;;4.40;53.40;;;;;;5027509;28;19912;-66
2021/04/10 03:53:56;;;;;;;;;;;4.40;52.90;;;;;;5027076;28;19909;-65
2021/04/10 03:56:22;;;;;;;;;;;4.50;52.40;;;;;;5027159;28;20254;-67
2021/04/10 03:58:47;;;;;;;;;;;4.50;52.20;;;;;;5027054;28;20459;-66
2021/04/10 04:01:13;;;;;;;;;;;4.60;51.80;;;;;;5027415;28;19974;-66
2021/04/10 04:03:38;;;;;;;;;;;4.70;51.50;;;;;;5026957;28;19905;-66
2021/04/10 04:06:04;;;;;;;;;;;4.70;51.30;;;;;;5027313;28;19913;-66
2021/04/10 04:08:30;;;;;;;;;;;4.70;51.10;;;;;;5026008;28;19912;-66
2021/04/10 04:10:55;;;;;;;;;;;4.70;50.70;;;;;;5026643;28;19909;-66
2021/04/10 04:13:21;;;;;;;;;;;4.70;50.70;;;;;;5026952;28;19905;-65
2021/04/10 04:15:46;;;;;;;;;;;4.70;50.80;;;;;;5026646;28;19915;-67
2021/04/10 04:18:12;;;;;;;;;;;4.70;50.90;;;;;;5025602;28;19917;-66
2021/04/10 04:20:37;;;;;;;;;;;4.70;50.80;;;;;;5026168;28;19923;-66
2021/04/10 04:23:03;;;;;;;;;;;4.70;50.70;;;;;;5027085;28;19905;-65
2021/04/10 04:25:28;;;;;;;;;;;4.70;50.50;;;;;;5026289;28;20293;-66
2021/04/10 04:27:54;;;;;;;;;;;4.80;50.50;;;;;;5026731;28;19909;-66
2021/04/10 04:30:20;;;;;;;;;;;4.90;50.30;;;;;;5027221;28;19909;-66
2021/04/10 04:32:45;;;;;;;;;;;4.90;50.20;;;;;;5026601;28;20640;-65
2021/04/10 04:35:11;;;;;;;;;;;4.90;50.10;;;;;;5026755;28;19909;-66
2021/04/10 04:37:36;;;;;;;;;;;4.90;50.30;;;;;;5026304;28;19913;-66
2021/04/10 04:40:02;;;;;;;;;;;4.90;50.60;;;;;;5025529;28;20027;-66
2021/04/10 04:42:28;;;;;;;;;;;5.10;50.10;;;;;;5025887;28;20392;-67
2021/04/10 04:44:53;;;;;;;;;;;5.50;48.90;;;;;;5026111;28;20083;-66
2021/04/10 04:47:19;;;;;;;;;;;5.80;47.70;;;;;;5026574;28;19905;-66
2021/04/10 04:49:44;;;;;;;;;;;6.10;46.90;;;;;;5026117;28;19921;-66
2021/04/10 04:52:10;;;;;;;;;;;6.60;46.40;;;;;;5026766;28;19905;-67
2021/04/10 04:54:35;;;;;;;;;;;7.00;45.20;;;;;;5025363;28;19909;-66
2021/04/10 04:57:01;;;;;;;;;;;7.60;43.90;;;;;;5025773;28;19905;-67
2021/04/10 04:59:26;;;;;;;;;;;8.20;42.40;;;;;;5026397;28;19916;-66
2021/04/10 05:01:52;;;;;;;;;;;8.70;41.10;;;;;;5026183;28;19905;-66
2021/04/10 05:04:17;;;;;;;;;;;9.10;39.80;;;;;;5024844;28;19951;-66
2021/04/10 05:06:43;;;;;;;;;;;9.40;39.50;;;;;;5025313;28;19920;-66
2021/04/10 05:09:09;;;;;;;;;;;9.70;37.90;;;;;;5023935;28;20385;-66
2021/04/10 05:11:34;;;;;;;;;;;9.80;37.80;;;;;;5024339;28;19920;-66
2021/04/10 05:14:00;;;;;;;;;;;10.00;37.00;;;;;;5023891;28;19909;-67
2021/04/10 05:16:25;;;;;;;;;;;9.90;37.40;;;;;;5024974;28;20445;-67
2021/04/10 05:18:51;;;;;;;;;;;10.00;37.20;;;;;;5026050;28;19917;-67
2021/04/10 05:23:52;;;;;;;;;;;10.80;35.80;;;;;;5278121;23;19929;-69
2021/04/10 05:26:18;;;;;;;;;;;11.30;34.70;;;;;;5004436;28;19917;-69
2021/04/10 05:28:43;;;;;;;;;;;11.80;33.60;;;;;;5005381;28;19906;-68
2021/04/10 05:31:09;;;;;;;;;;;12.20;32.20;;;;;;5005400;28;19952;-68
2021/04/10 05:39:41;;;;;;;;;;;11.80;32.50;;;;;;5009081;28;19924;-66
2021/04/10 05:42:09;;;;;;;;;;;12.10;31.90;;;;;;5008615;28;19924;-67
2021/04/10 05:44:35;;;;;;;;;;;12.10;31.80;;;;;;5008400;28;19909;-68
2021/04/10 05:47:01;;;;;;;;;;;12.10;31.90;;;;;;4989834;28;19916;-69
2021/04/10 05:49:26;;;;;;;;;;;12.00;31.90;;;;;;4964667;28;20434;-68
2021/04/10 05:54:55;;;;;;;;;;;12.00;32.30;;;;;;4967112;28;19968;-69
2021/04/10 05:57:20;;;;;;;;;;;12.10;31.90;;;;;;4975405;28;19953;-67
2021/04/10 05:59:46;;;;;;;;;;;12.20;32.10;;;;;;4982011;28;19964;-66
2021/04/10 06:02:11;;;;;;;;;;;12.70;31.80;;;;;;4979463;28;20378;-66
2021/04/10 06:04:37;;;;;;;;;;;13.00;31.10;;;;;;4981542;28;19910;-66
2021/04/10 06:10:06;;;;;;;;;;;13.60;30.10;;;;;;4978891;28;19968;-66
2021/04/10 06:12:32;;;;;;;;;;;13.80;29.80;;;;;;4981117;28;20394;-66
2021/04/10 06:14:57;;;;;;;;;;;13.80;29.50;;;;;;4979370;28;19940;-66
2021/04/10 06:17:23;;;;;;;;;;;13.80;29.60;;;;;;4980082;28;19913;-66
2021/04/10 06:19:48;;;;;;;;;;;14.20;29.20;;;;;;4980373;28;19918;-66
2021/04/10 06:25:17;;;;;;;;;;;14.50;29.10;;;;;;4968549;28;19980;-66
2021/04/10 06:27:42;;;;;;;;;;;14.80;28.40;;;;;;4971960;28;19917;-66
2021/04/10 06:30:08;;;;;;;;;;;14.70;28.80;;;;;;4971906;28;20413;-66
2021/04/10 06:32:34;;;;;;;;;;;14.90;28.70;;;;;;4971770;28;19937;-66
2021/04/10 06:35:00;;;;;;;;;;;15.10;28.40;;;;;;4971791;28;19910;-67
2021/04/10 06:40:29;;;;;;;;;;;15.30;28.10;;;;;;4972066;28;19921;-67
2021/04/10 06:42:55;;;;;;;;;;;15.50;27.90;;;;;;4970187;28;19929;-67
2021/04/10 06:45:21;;;;;;;;;;;15.50;27.90;;;;;;4971482;28;20399;-66
2021/04/10 06:47:47;;;;;;;;;;;15.70;27.90;;;;;;4971317;28;19906;-67
2021/04/10 06:50:13;;;;;;;;;;;15.80;28.00;;;;;;4969994;28;19910;-67
2021/04/10 06:55:44;;;;;;;;;;;16.00;27.70;;;;;;4971642;28;19957;-66
2021/04/10 06:58:11;;;;;;;;;;;16.00;27.70;;;;;;4969823;28;19997;-67
2021/04/10 07:00:36;;;;;;;;;;;16.00;27.80;;;;;;4969867;28;19949;-66
2021/04/10 07:03:02;;;;;;;;;;;16.20;27.90;;;;;;4971277;28;19910;-65
2021/04/10 07:05:29;;;;;;;;;;;16.80;27.30;;;;;;4971171;28;19910;-67
2021/04/10 07:10:58;;;;;;;;;;;17.20;26.80;;;;;;4971633;28;20017;-67
2021/04/10 07:13:23;;;;;;;;;;;17.60;26.90;;;;;;4969741;28;20009;-67
2021/04/10 07:15:49;;;;;;;;;;;18.10;26.20;;;;;;4970932;28;20370;-67
2021/04/10 07:18:14;;;;;;;;;;;18.10;26.00;;;;;;4969970;28;19910;-67
2021/04/10 07:20:40;;;;;;;;;;;18.10;26.40;;;;;;4970940;28;19957;-67
2021/04/10 07:26:09;;;;;;;;;;;18.70;25.10;;;;;;4963869;28;20012;-66
2021/04/10 07:28:34;;;;;;;;;;;19.30;24.90;;;;;;4978109;28;19945;-67
2021/04/10 07:31:03;;;;;;;;;;;19.10;25.40;;;;;;4990152;28;20306;-66
2021/04/10 07:33:29;;;;;;;;;;;19.20;25.30;;;;;;4990075;28;19910;-67
2021/04/10 07:35:55;;;;;;;;;;;19.50;25.10;;;;;;4989172;28;20012;-67
2021/04/10 07:41:23;;;;;;;;;;;19.60;24.80;;;;;;4990421;28;19972;-67
2021/04/10 07:43:49;;;;;;;;;;;19.80;24.80;;;;;;4989431;28;20364;-67
2021/04/10 07:46:14;;;;;;;;;;;19.90;25.20;;;;;;4989788;28;20328;-67
2021/04/10 07:48:58;;;;;;;;;;;19.80;24.80;;;;;;4989937;28;19909;-67
2021/04/10 07:51:23;;;;;;;;;;;20.10;24.50;;;;;;4989791;28;19921;-67
2021/04/10 07:57:05;;;;;;;;;;;20.10;24.70;;;;;;4990280;28;19963;-67
2021/04/10 07:59:46;;;;;;;;;;;20.40;24.70;;;;;;4989337;28;19992;-67
2021/04/10 08:02:13;;;;;;;;;;;20.90;23.60;;;;;;4989468;28;19905;-67
2021/04/10 08:04:41;;;;;;;;;;;20.90;24.30;;;;;;4988960;28;19910;-67
2021/04/10 08:13:13;;;;;;;;;;;22.70;22.40;;;;;;4990051;28;19916;-67
2021/04/10 08:15:39;;;;;;;;;;;22.90;22.60;;;;;;4989119;28;19909;-67
2021/04/10 08:18:21;;;;;;;;;;;23.00;22.40;;;;;;4989404;28;19910;-67
2021/04/10 08:20:50;;;;;;;;;;;23.10;22.60;;;;;;4987120;28;20513;-67
2021/04/10 08:29:35;;;;;;;;;;;23.00;22.30;;;;;;4961699;28;19933;-67
2021/04/10 08:32:02;;;;;;;;;;;22.60;23.20;;;;;;4966842;28;19956;-67
2021/04/10 08:34:28;;;;;;;;;;;22.80;23.80;;;;;;4950947;28;19953;-67
2021/04/10 08:37:04;;;;;;;;;;;23.40;23.00;;;;;;4967227;28;19910;-67
2021/04/10 08:42:33;;;;;;;;;;;22.50;23.60;;;;;;4967715;28;19917;-67
2021/04/10 08:45:01;;;;;;;;;;;21.90;24.30;;;;;;4951129;28;19910;-67
2021/04/10 08:47:27;;;;;;;;;;;22.20;24.60;;;;;;4966452;28;19917;-67
2021/04/10 08:49:53;;;;;;;;;;;22.70;24.10;;;;;;4966989;28;19917;-67
2021/04/10 08:52:20;;;;;;;;;;;22.70;23.60;;;;;;4966920;28;19941;-67
2021/04/10 08:57:48;;;;;;;;;;;22.50;24.50;;;;;;4985295;28;19920;-67
2021/04/10 09:00:28;;;;;;;;;;;22.40;24.30;;;;;;4988893;28;19909;-67
2021/04/10 09:02:59;;;;;;;;;;;22.20;24.30;;;;;;4987648;28;19916;-66
2021/04/10 09:05:44;;;;;;;;;;;21.50;25.20;;;;;;4989291;28;19909;-66
2021/04/10 09:14:36;;;;;;;;;;;21.60;25.50;;;;;;4993394;28;19972;-69
2021/04/10 09:17:05;;;;;;;;;;;21.70;26.00;;;;;;4991238;28;19913;-68
2021/04/10 09:19:36;;;;;;;;;;;21.40;25.50;;;;;;4992878;28;20119;-68
2021/04/10 09:22:02;;;;;;;;;;;21.30;25.20;;;;;;4992962;28;20345;-68
2021/04/10 09:27:31;;;;;;;;;;;20.80;25.60;;;;;;4991761;28;19924;-67
2021/04/10 09:30:00;;;;;;;;;;;20.30;26.40;;;;;;4991487;28;19921;-67
2021/04/10 09:32:36;;;;;;;;;;;20.10;27.00;;;;;;4990199;28;20001;-66
2021/04/10 09:35:02;;;;;;;;;;;20.70;27.00;;;;;;4990146;28;19955;-68
2021/04/10 09:40:50;;;;;;;;;;;21.90;25.30;;;;;;4990649;28;20072;-66
2021/04/10 09:43:18;;;;;;;;;;;22.20;24.80;;;;;;4991384;28;20382;-66
2021/04/10 09:45:43;;;;;;;;;;;22.50;25.10;;;;;;4988901;28;19921;-67
2021/04/10 09:48:11;;;;;;;;;;;23.10;24.60;;;;;;4991269;28;19924;-68
2021/04/10 09:50:41;;;;;;;;;;;23.00;24.00;;;;;;4990872;28;19917;-67
2021/04/10 09:53:14;;;;;;;;;;;22.60;24.30;;;;;;4988656;28;19921;-70
2021/04/10 09:55:44;;;;;;;;;;;21.90;25.00;;;;;;4989847;28;19917;-67
2021/04/10 09:58:14;;;;;;;;;;;21.80;25.20;;;;;;5005892;28;19949;-67
2021/04/10 10:00:53;;;;;;;;;;;21.70;25.80;;;;;;4991155;28;19940;-67
2021/04/10 10:03:19;;;;;;;;;;;21.40;25.60;;;;;;4991107;28;20306;-67
2021/04/10 10:05:46;;;;;;;;;;;21.20;26.00;;;;;;4989981;28;19909;-66
2021/04/10 10:08:12;;;;;;;;;;;21.30;26.20;;;;;;4990957;28;19913;-66
2021/04/10 10:10:39;;;;;;;;;;;21.60;26.20;;;;;;4989589;28;20305;-67
2021/04/10 10:13:15;;;;;;;;;;;21.90;25.90;;;;;;4990868;28;19924;-66
2021/04/10 10:15:41;;;;;;;;;;;21.80;25.80;;;;;;4989243;28;19969;-66
2021/04/10 10:18:13;;;;;;;;;;;21.90;26.00;;;;;;4989543;28;19944;-66
2021/04/10 10:20:39;;;;;;;;;;;21.50;25.90;;;;;;4990737;28;19920;-69
2021/04/10 10:23:15;;;;;;;;;;;20.70;26.90;;;;;;4988843;28;20008;-66
2021/04/10 10:28:45;;;;;;;;;;;19.30;28.70;;;;;;4989722;28;19956;-66
2021/04/10 10:31:23;;;;;;;;;;;18.80;29.80;;;;;;4990271;28;19921;-66
2021/04/10 10:33:49;;;;;;;;;;;18.30;30.20;;;;;;4988355;28;19928;-66
2021/04/10 10:36:16;;;;;;;;;;;17.80;31.00;;;;;;4990238;28;19917;-68
2021/04/10 10:38:45;;;;;;;;;;;17.60;32.00;;;;;;4990565;28;20095;-67
2021/04/10 10:41:12;;;;;;;;;;;17.30;31.80;;;;;;4991265;28;19909;-67
2021/04/10 10:43:37;;;;;;;;;;;17.10;33.30;;;;;;4990754;28;19917;-67
2021/04/10 10:46:04;;;;;;;;;;;17.00;33.40;;;;;;4990691;28;19910;-66
2021/04/10 10:51:35;;;;;;;;;;;16.90;34.40;;;;;;4991252;28;19925;-67
2021/04/10 10:54:00;;;;;;;;;;;17.00;34.30;;;;;;4990117;28;19906;-67
2021/04/10 10:56:27;;;;;;;;;;;17.00;33.40;;;;;;4990922;28;20396;-67
2021/04/10 10:58:53;;;;;;;;;;;17.10;33.80;;;;;;4989268;28;20336;-67
2021/04/10 11:01:45;;;;;;;;;;;17.20;33.90;;;;;;4990748;28;19926;-67
2021/04/10 11:07:14;;;;;;;;;;;17.10;33.80;;;;;;4950291;29;20286;-67
2021/04/10 11:09:41;;;;;;;;;;;17.20;33.20;;;;;;4985701;28;19914;-67
2021/04/10 11:12:11;;;;;;;;;;;17.00;33.40;;;;;;4990685;28;19917;-68
2021/04/10 11:14:41;;;;;;;;;;;16.80;33.70;;;;;;4989207;28;19909;-67
2021/04/10 11:17:07;;;;;;;;;;;16.90;34.50;;;;;;4989781;28;20146;-67
2021/04/10 11:22:36;;;;;;;;;;;17.40;33.60;;;;;;4991272;28;19916;-68
2021/04/10 11:25:01;;;;;;;;;;;17.60;32.90;;;;;;4990486;28;19996;-68
2021/04/10 11:27:32;;;;;;;;;;;17.60;33.30;;;;;;4990299;28;19909;-67
2021/04/10 11:30:03;;;;;;;;;;;17.30;33.20;;;;;;4989578;28;19965;-67
2021/04/10 11:32:31;;;;;;;;;;;17.10;33.20;;;;;;4988924;28;19906;-67
2021/04/10 11:38:06;;;;;;;;;;;16.80;34.70;;;;;;4990478;28;20048;-68
2021/04/10 11:40:34;;;;;;;;;;;16.90;34.20;;;;;;4990093;28;20299;-67
2021/04/10 11:43:03;;;;;;;;;;;17.10;33.70;;;;;;4989761;28;19910;-67
2021/04/10 11:45:29;;;;;;;;;;;17.20;33.60;;;;;;4989550;28;19916;-66
2021/04/10 11:54:01;;;;;;;;;;;17.10;34.30;;;;;;4990354;28;19996;-68
2021/04/10 11:56:28;;;;;;;;;;;17.10;33.10;;;;;;4989926;28;19941;-67
2021/04/10 11:58:59;;;;;;;;;;;17.00;33.80;;;;;;4989590;28;19972;-67
2021/04/10 12:01:25;;;;;;;;;;;17.20;33.20;;;;;;4988388;28;19910;-68
2021/04/10 12:03:51;;;;;;;;;;;17.30;33.10;;;;;;4987957;28;19917;-67
2021/04/10 12:09:19;;;;;;;;;;;17.50;32.80;;;;;;4989857;28;19964;-67
2021/04/10 12:11:45;;;;;;;;;;;17.70;32.10;;;;;;4989306;28;19910;-68
2021/04/10 12:14:11;;;;;;;;;;;17.80;31.40;;;;;;4987950;28;19956;-68
2021/04/10 12:16:37;;;;;;;;;;;17.80;31.60;;;;;;4989251;28;20020;-67
2021/04/10 12:19:03;;;;;;;;;;;17.60;31.60;;;;;;4989376;28;19905;-68
2021/04/10 12:24:32;;;;;;;;;;;17.40;32.20;;;;;;4989703;28;19917;-68
2021/04/10 12:26:57;;;;;;;;;;;17.30;32.20;;;;;;4987146;28;20286;-67
2021/04/10 12:29:24;;;;;;;;;;;17.30;32.40;;;;;;4988880;28;20420;-67
2021/04/10 12:31:49;;;;;;;;;;;17.40;31.90;;;;;;4988931;28;20052;-67
2021/04/10 12:34:15;;;;;;;;;;;17.50;32.40;;;;;;4988233;28;20028;-67
2021/04/10 12:39:43;;;;;;;;;;;17.60;32.10;;;;;;4989270;28;19940;-67
2021/04/10 12:42:09;;;;;;;;;;;17.50;32.20;;;;;;4988696;28;19906;-67
2021/04/10 12:44:34;;;;;;;;;;;17.60;32.10;;;;;;4989184;28;20382;-67
2021/04/10 12:47:00;;;;;;;;;;;17.50;32.30;;;;;;4989018;28;19941;-66
2021/04/10 12:49:25;;;;;;;;;;;17.70;33.40;;;;;;4988965;28;20006;-67
2021/04/10 12:54:54;;;;;;;;;;;18.00;32.10;;;;;;4989379;28;19913;-67
2021/04/10 12:57:20;;;;;;;;;;;18.20;31.50;;;;;;4988981;28;19909;-67
2021/04/10 12:59:45;;;;;;;;;;;18.40;31.40;;;;;;4988734;28;19906;-67
2021/04/10 13:02:11;;;;;;;;;;;18.50;30.60;;;;;;4988998;28;19910;-67
2021/04/10 13:04:36;;;;;;;;;;;18.50;30.90;;;;;;4988882;28;19913;-68
2021/04/10 13:10:05;;;;;;;;;;;18.40;30.90;;;;;;4989529;28;19924;-68
2021/04/10 13:12:33;;;;;;;;;;;18.30;31.00;;;;;;4987378;28;19905;-68
2021/04/10 13:14:58;;;;;;;;;;;18.30;30.40;;;;;;4988853;28;19929;-67
2021/04/10 13:17:24;;;;;;;;;;;18.30;29.80;;;;;;4988825;28;19972;-67
2021/04/10 13:19:49;;;;;;;;;;;18.10;30.70;;;;;;4988776;28;20276;-66
2021/04/10 13:25:18;;;;;;;;;;;18.20;30.70;;;;;;4989292;28;19932;-67
2021/04/10 13:27:45;;;;;;;;;;;18.00;30.50;;;;;;4988477;28;20444;-67
2021/04/10 13:30:11;;;;;;;;;;;17.80;31.20;;;;;;4988280;28;19925;-67
2021/04/10 13:32:37;;;;;;;;;;;17.90;31.60;;;;;;4988210;28;19911;-67
2021/04/10 13:35:03;;;;;;;;;;;18.00;31.20;;;;;;4988343;28;19906;-68
2021/04/10 13:40:31;;;;;;;;;;;17.90;30.70;;;;;;4988937;28;19916;-67
2021/04/10 13:42:57;;;;;;;;;;;17.90;30.80;;;;;;4987170;28;19910;-68
2021/04/10 13:45:22;;;;;;;;;;;17.70;31.20;;;;;;4987182;28;19906;-68
2021/04/10 13:47:48;;;;;;;;;;;17.80;31.50;;;;;;4988324;28;19910;-67
2021/04/10 13:50:13;;;;;;;;;;;17.70;31.80;;;;;;4988162;28;19921;-67
2021/04/10 13:55:42;;;;;;;;;;;17.90;31.30;;;;;;4992280;28;19917;-68
2021/04/10 13:58:08;;;;;;;;;;;18.00;31.10;;;;;;4991857;28;20370;-68
2021/04/10 14:00:34;;;;;;;;;;;18.00;30.80;;;;;;4991807;28;19910;-68
2021/04/10 14:02:59;;;;;;;;;;;18.10;30.90;;;;;;4990479;28;19910;-67
2021/04/10 14:05:25;;;;;;;;;;;18.20;31.00;;;;;;4991858;28;19948;-68
2021/04/10 14:10:54;;;;;;;;;;;18.10;30.90;;;;;;4992098;28;19924;-67
2021/04/10 14:13:20;;;;;;;;;;;18.20;30.80;;;;;;4991692;28;19906;-66
2021/04/10 14:15:46;;;;;;;;;;;18.10;30.90;;;;;;4990292;28;19968;-66
2021/04/10 14:21:15;;;;;;;;;;;18.00;30.70;;;;;;4992002;28;19964;-67
2021/04/10 14:23:42;;;;;;;;;;;17.90;31.10;;;;;;4991197;28;19953;-67
2021/04/10 14:26:13;;;;;;;;;;;18.00;30.80;;;;;;4990185;28;20501;-67
2021/04/10 14:28:38;;;;;;;;;;;18.00;30.90;;;;;;4990945;28;19925;-67
2021/04/10 14:31:05;;;;;;;;;;;18.10;30.60;;;;;;4991212;28;19964;-67
2021/04/10 14:36:33;;;;;;;;;;;18.00;30.70;;;;;;4991770;28;19916;-67
2021/04/10 14:38:58;;;;;;;;;;;18.00;30.90;;;;;;4991289;28;19909;-67
2021/04/10 14:41:24;;;;;;;;;;;17.90;31.20;;;;;;4990405;28;19910;-66
2021/04/10 14:43:49;;;;;;;;;;;18.00;31.70;;;;;;4991044;28;20424;-67
2021/04/10 14:46:15;;;;;;;;;;;18.00;31.00;;;;;;4991025;28;19910;-67
2021/04/10 14:54:47;;;;;;;;;;;17.90;31.00;;;;;;4991428;28;20035;-67
2021/04/10 14:57:13;;;;;;;;;;;18.00;30.80;;;;;;4990881;28;19909;-67
2021/04/10 14:59:38;;;;;;;;;;;18.10;30.50;;;;;;4990526;28;19910;-67
2021/04/10 15:02:04;;;;;;;;;;;18.00;30.70;;;;;;4989304;28;19916;-67
2021/04/10 15:04:30;;;;;;;;;;;17.90;31.00;;;;;;4989252;28;19999;-66
2021/04/10 15:10:15;;;;;;;;;;;17.80;31.00;;;;;;4991104;28;19986;-66
2021/04/10 15:12:41;;;;;;;;;;;17.70;30.80;;;;;;4989154;28;20012;-67
2021/04/10 15:15:09;;;;;;;;;;;17.60;30.80;;;;;;4990072;28;19993;-67
2021/04/10 15:17:34;;;;;;;;;;;17.70;32.00;;;;;;4989963;28;19968;-66
2021/04/10 15:20:00;;;;;;;;;;;17.70;31.40;;;;;;4990747;28;19902;-67
2021/04/10 15:25:29;;;;;;;;;;;17.80;31.50;;;;;;4990698;28;19916;-67
2021/04/10 15:27:54;;;;;;;;;;;17.80;31.00;;;;;;4990001;28;20297;-67
2021/04/10 15:30:20;;;;;;;;;;;17.80;31.30;;;;;;4990193;28;19933;-67
2021/04/10 15:32:48;;;;;;;;;;;17.80;31.20;;;;;;4990450;28;19910;-66
2021/04/10 15:35:14;;;;;;;;;;;17.80;30.90;;;;;;4989427;28;20045;-68
2021/04/10 15:40:42;;;;;;;;;;;17.60;31.60;;;;;;4990552;28;19913;-66
2021/04/10 15:43:08;;;;;;;;;;;17.50;31.30;;;;;;4990013;28;19910;-67
2021/04/10 15:45:33;;;;;;;;;;;17.30;31.30;;;;;;4989796;28;20045;-67
2021/04/10 15:47:59;;;;;;;;;;;17.20;31.40;;;;;;4990095;28;19910;-67
2021/04/10 15:50:24;;;;;;;;;;;17.00;31.70;;;;;;4989633;28;20336;-67
2021/04/10 15:55:54;;;;;;;;;;;17.00;32.20;;;;;;4990111;28;19924;-67
2021/04/10 15:58:19;;;;;;;;;;;16.90;32.30;;;;;;4989632;28;19910;-67
2021/04/10 16:00:45;;;;;;;;;;;16.80;32.60;;;;;;4989601;28;19910;-68
2021/04/10 16:03:11;;;;;;;;;;;16.80;33.00;;;;;;4989555;28;19914;-67
2021/04/10 16:05:37;;;;;;;;;;;16.70;33.40;;;;;;4989402;28;19969;-68
2021/04/10 16:11:06;;;;;;;;;;;16.70;33.20;;;;;;4990058;28;19963;-67
2021/04/10 16:13:31;;;;;;;;;;;16.60;33.60;;;;;;4989401;28;20700;-66
2021/04/10 16:15:57;;;;;;;;;;;16.60;34.30;;;;;;4988465;28;19909;-67
2021/04/10 16:18:23;;;;;;;;;;;16.60;33.80;;;;;;4989394;28;19912;-67
2021/04/10 16:20:48;;;;;;;;;;;16.50;33.80;;;;;;4989308;28;19909;-66
2021/04/10 16:26:16;;;;;;;;;;;16.40;34.30;;;;;;4989710;28;20353;-67
2021/04/10 16:28:42;;;;;;;;;;;16.30;34.40;;;;;;4988900;28;19918;-67
2021/04/10 16:31:07;;;;;;;;;;;16.30;34.70;;;;;;4988527;28;19980;-67
2021/04/10 16:33:33;;;;;;;;;;;16.20;34.60;;;;;;4989162;28;19999;-67
2021/04/10 16:35:59;;;;;;;;;;;16.10;34.50;;;;;;4989243;28;19910;-66
2021/04/10 16:41:27;;;;;;;;;;;16.10;34.60;;;;;;4989660;28;20439;-66
2021/04/10 16:43:52;;;;;;;;;;;16.00;35.00;;;;;;4987509;28;19937;-67
2021/04/10 16:46:18;;;;;;;;;;;15.90;35.20;;;;;;4989065;28;20277;-67
2021/04/10 16:48:43;;;;;;;;;;;15.80;35.60;;;;;;4988183;28;19963;-68
2021/04/10 16:51:09;;;;;;;;;;;15.80;35.90;;;;;;4988889;28;20374;-69